Time;durP1;ratioP1;P1;durP2;ratioP2;P2;SDS_P1;SDS_P2;PMS_P1;PMS_P2;Temp;Humidity;BMP_temperature;BMP_pressure;BME280_temperature;BME280_humidity;BME280_pressure;Samples;Min_cycle;Max_cycle;Signal;HPM_P1;HPM_P2
2022/07/22 00:00:32;;;;;;;;;;;;;;;19.25;64.34;96866.06;5075993;28;19967;-73
2022/07/22 00:02:58;;;;;;;;;;;;;;;19.22;64.34;96869.25;5076135;28;20014;-73
2022/07/22 00:05:24;;;;;;;;;;;;;;;19.20;64.97;96865.28;5058135;28;19958;-73
2022/07/22 00:07:50;;;;;;;;;;;;;;;19.16;64.78;96869.53;5076281;28;19998;-73
2022/07/22 00:10:16;;;;;;;;;;;;;;;19.14;64.74;96863.66;5075881;28;19958;-74
2022/07/22 00:12:41;;;;;;;;;;;;;;;19.12;64.79;96868.44;5075130;28;19983;-73
2022/07/22 00:15:08;;;;;;;;;;;;;;;19.09;64.93;96864.44;5076065;28;19968;-73
2022/07/22 00:17:36;;;;;;;;;;;;;;;19.08;64.71;96862.84;5075971;28;19961;-73
2022/07/22 00:20:02;;;;;;;;;;;;;;;19.06;64.98;96859.66;5075985;28;19966;-73
2022/07/22 00:22:28;;;;;;;;;;;;;;;19.04;65.29;96867.88;5075095;28;19962;-74
2022/07/22 00:24:54;;;;;;;;;;;;;;;19.02;65.67;96859.38;5075843;28;20063;-73
2022/07/22 00:27:20;;;;;;;;;;;;;;;19.01;65.37;96860.44;5075654;28;20421;-74
2022/07/22 00:29:46;;;;;;;;;;;;;;;19.01;65.59;96860.44;5075542;28;19962;-74
2022/07/22 00:32:12;;;;;;;;;;;;;;;19.00;65.46;96863.34;5075464;28;19952;-73
2022/07/22 00:34:38;;;;;;;;;;;;;;;18.98;65.41;96860.97;5075738;28;20035;-73
2022/07/22 00:37:04;;;;;;;;;;;;;;;18.95;65.75;96858.81;5057725;28;19960;-73
2022/07/22 00:39:30;;;;;;;;;;;;;;;18.94;65.68;96854.59;5040511;28;19963;-73
2022/07/22 00:41:56;;;;;;;;;;;;;;;18.92;65.85;96853.22;5075862;28;20019;-73
2022/07/22 00:44:22;;;;;;;;;;;;;;;18.87;65.65;96854.00;5074964;28;19970;-74
2022/07/22 00:46:48;;;;;;;;;;;;;;;18.84;65.71;96858.00;5075438;28;20058;-73
2022/07/22 00:49:14;;;;;;;;;;;;;;;18.79;66.07;96857.16;5075478;28;19960;-74
2022/07/22 00:51:40;;;;;;;;;;;;;;;18.75;66.72;96869.34;5075225;28;19962;-73
2022/07/22 00:54:06;;;;;;;;;;;;;;;18.73;66.74;96853.69;5075375;28;19954;-73
2022/07/22 00:56:32;;;;;;;;;;;;;;;18.72;66.63;96852.06;5075145;28;19951;-73
2022/07/22 00:59:00;;;;;;;;;;;;;;;18.72;66.96;96853.94;5075129;28;19960;-73
2022/07/22 01:01:26;;;;;;;;;;;;;;;18.70;66.74;96843.56;5074865;28;19952;-73
2022/07/22 01:03:52;;;;;;;;;;;;;;;18.68;66.38;96840.38;5075055;28;20336;-73
2022/07/22 01:06:18;;;;;;;;;;;;;;;18.66;66.90;96847.78;5074809;28;19953;-73
2022/07/22 01:08:44;;;;;;;;;;;;;;;18.66;66.80;96834.50;5074718;28;19956;-73
2022/07/22 01:11:11;;;;;;;;;;;;;;;18.64;67.17;96842.72;5074283;28;20043;-73
2022/07/22 01:13:37;;;;;;;;;;;;;;;18.62;66.85;96836.88;5074764;28;19963;-74
2022/07/22 01:16:04;;;;;;;;;;;;;;;18.61;67.18;96837.94;5074505;28;20345;-73
2022/07/22 01:18:30;;;;;;;;;;;;;;;18.58;67.42;96837.66;5074698;28;19961;-73
2022/07/22 01:20:56;;;;;;;;;;;;;;;18.56;67.56;96843.25;5074824;28;19961;-73
2022/07/22 01:23:22;;;;;;;;;;;;;;;18.55;67.86;96838.19;5074753;28;20034;-73
2022/07/22 01:25:48;;;;;;;;;;;;;;;18.51;67.64;96837.91;5074716;28;19958;-74
2022/07/22 01:28:14;;;;;;;;;;;;;;;18.50;68.04;96832.84;5074538;28;20398;-73
2022/07/22 01:30:39;;;;;;;;;;;;;;;18.48;67.58;96832.28;5074453;28;20005;-73
2022/07/22 01:33:05;;;;;;;;;;;;;;;18.44;68.28;96832.03;5074540;28;20001;-73
2022/07/22 01:35:31;;;;;;;;;;;;;;;18.42;67.98;96831.50;5074206;28;20308;-73
2022/07/22 01:37:57;;;;;;;;;;;;;;;18.40;68.06;96833.59;5073377;28;20050;-74
2022/07/22 01:40:23;;;;;;;;;;;;;;;18.36;68.09;96824.56;5074309;28;20401;-73
2022/07/22 01:42:49;;;;;;;;;;;;;;;18.34;68.43;96824.81;5073622;28;19967;-74
2022/07/22 01:45:15;;;;;;;;;;;;;;;18.34;68.78;96821.38;5074201;28;20323;-74
2022/07/22 01:47:41;;;;;;;;;;;;;;;18.34;68.93;96824.00;5074088;28;19957;-73
2022/07/22 01:50:08;;;;;;;;;;;;;;;18.34;69.33;96824.81;5073842;28;19964;-73
2022/07/22 01:52:34;;;;;;;;;;;;;;;18.37;68.93;96826.13;5073682;28;20318;-73
2022/07/22 01:55:00;;;;;;;;;;;;;;;18.41;69.02;96824.56;5073920;28;20062;-73
2022/07/22 01:57:26;;;;;;;;;;;;;;;18.42;68.92;96820.88;5073771;28;19949;-74
2022/07/22 01:59:51;;;;;;;;;;;;;;;18.42;68.95;96816.34;5074077;28;20006;-73
2022/07/22 02:02:17;;;;;;;;;;;;;;;18.44;69.11;96832.03;5074092;28;19962;-73
2022/07/22 02:04:43;;;;;;;;;;;;;;;18.45;69.02;96825.66;5073694;28;20027;-74
2022/07/22 02:07:09;;;;;;;;;;;;;;;18.49;69.36;96825.94;5073805;28;19965;-73
2022/07/22 02:09:35;;;;;;;;;;;;;;;18.51;68.75;96826.47;5074088;28;20007;-73
2022/07/22 02:12:01;;;;;;;;;;;;;;;18.53;68.76;96816.41;5073443;28;19994;-74
2022/07/22 02:14:27;;;;;;;;;;;;;;;18.53;68.96;96813.75;5073654;28;20331;-73
2022/07/22 02:16:53;;;;;;;;;;;;;;;18.52;68.75;96814.78;5073734;28;19997;-73
2022/07/22 02:19:19;;;;;;;;;;;;;;;18.51;68.85;96818.53;5073569;28;20376;-73
2022/07/22 02:21:45;;;;;;;;;;;;;;;18.48;68.72;96805.75;5073864;28;20044;-73
2022/07/22 02:24:11;;;;;;;;;;;;;;;18.45;68.37;96815.03;5073981;28;19973;-73
2022/07/22 02:26:37;;;;;;;;;;;;;;;18.44;68.61;96813.44;5073469;28;20347;-74
2022/07/22 02:29:03;;;;;;;;;;;;;;;18.42;68.96;96819.00;5072737;28;20428;-73
2022/07/22 02:31:29;;;;;;;;;;;;;;;18.42;69.12;96815.56;5073509;28;19969;-73
2022/07/22 02:33:54;;;;;;;;;;;;;;;18.39;68.82;96813.41;5073439;28;19984;-74
2022/07/22 02:36:20;;;;;;;;;;;;;;;18.36;69.29;96813.94;5073414;28;19961;-74
2022/07/22 02:38:46;;;;;;;;;;;;;;;18.32;69.46;96813.66;5073607;28;20039;-73
2022/07/22 02:41:12;;;;;;;;;;;;;;;18.29;69.20;96814.19;5073431;28;19987;-73
2022/07/22 02:43:38;;;;;;;;;;;;;;;18.28;69.11;96809.91;5073469;28;19979;-73
2022/07/22 02:46:04;;;;;;;;;;;;;;;18.27;69.46;96810.97;5073603;28;19981;-73
2022/07/22 02:48:30;;;;;;;;;;;;;;;18.24;70.07;96808.81;5073521;28;20333;-73
2022/07/22 02:50:56;;;;;;;;;;;;;;;18.22;69.80;96813.59;5073341;28;19962;-74
2022/07/22 02:53:22;;;;;;;;;;;;;;;18.16;70.46;96804.00;5072642;28;20069;-73
2022/07/22 02:55:47;;;;;;;;;;;;;;;18.13;69.91;96804.53;5073178;28;20004;-72
2022/07/22 02:58:13;;;;;;;;;;;;;;;18.11;70.19;96804.00;5073480;28;19957;-74
2022/07/22 03:00:39;;;;;;;;;;;;;;;18.07;70.11;96809.00;5055574;28;20045;-73
2022/07/22 03:03:05;;;;;;;;;;;;;;;18.02;70.74;96807.13;5075721;28;19962;-73
2022/07/22 03:05:31;;;;;;;;;;;;;;;17.98;70.38;96805.25;5077210;28;19974;-71
2022/07/22 03:07:57;;;;;;;;;;;;;;;17.95;70.71;96803.09;5076763;28;19965;-73
2022/07/22 03:10:23;;;;;;;;;;;;;;;17.92;71.03;96808.91;5077201;28;19987;-73
2022/07/22 03:12:49;;;;;;;;;;;;;;;17.90;70.90;96808.38;5077121;28;20021;-73
2022/07/22 03:15:15;;;;;;;;;;;;;;;17.87;70.59;96808.88;5059377;28;20345;-73
2022/07/22 03:17:41;;;;;;;;;;;;;;;17.86;70.72;96808.06;5059049;28;19958;-73
2022/07/22 03:20:08;;;;;;;;;;;;;;;17.85;70.89;96806.50;5076823;28;20047;-73
2022/07/22 03:22:34;;;;;;;;;;;;;;;17.84;71.00;96804.88;5076802;28;19966;-74
2022/07/22 03:25:00;;;;;;;;;;;;;;;17.82;71.74;96801.66;5076675;28;19988;-73
2022/07/22 03:27:26;;;;;;;;;;;;;;;17.81;71.41;96808.03;5076858;28;19953;-73
2022/07/22 03:29:52;;;;;;;;;;;;;;;17.80;71.36;96812.50;5076673;28;19956;-73
2022/07/22 03:32:18;;;;;;;;;;;;;;;17.80;71.51;96809.06;5076997;28;20347;-73
2022/07/22 03:34:44;;;;;;;;;;;;;;;17.80;71.22;96807.19;5076788;28;20390;-73
2022/07/22 03:37:10;;;;;;;;;;;;;;;17.78;72.00;96816.47;5076535;28;19960;-73
2022/07/22 03:39:36;;;;;;;;;;;;;;;17.74;72.11;96816.19;5076525;28;19956;-73
2022/07/22 03:42:02;;;;;;;;;;;;;;;17.73;72.44;96813.78;5076361;28;19988;-73
2022/07/22 03:44:28;;;;;;;;;;;;;;;17.72;72.18;96809.53;5076342;28;19980;-73
2022/07/22 03:46:54;;;;;;;;;;;;;;;17.71;72.27;96819.34;5076275;28;20052;-73
2022/07/22 03:49:20;;;;;;;;;;;;;;;17.70;72.32;96811.63;5076552;28;19996;-73
2022/07/22 03:51:46;;;;;;;;;;;;;;;17.69;72.18;96816.16;5076470;28;19982;-73
2022/07/22 03:54:12;;;;;;;;;;;;;;;17.69;72.65;96812.72;5076161;28;20341;-73
2022/07/22 03:56:38;;;;;;;;;;;;;;;17.68;72.33;96805.78;5076126;28;19955;-73
2022/07/22 03:59:04;;;;;;;;;;;;;;;17.67;72.10;96812.94;5076317;28;19962;-73
2022/07/22 04:01:30;;;;;;;;;;;;;;;17.66;72.30;96808.72;5076274;28;19963;-73
2022/07/22 04:03:55;;;;;;;;;;;;;;;17.64;72.42;96811.63;5076289;28;20451;-73
2022/07/22 04:06:21;;;;;;;;;;;;;;;17.63;72.79;96815.31;5076087;28;19963;-74
2022/07/22 04:08:48;;;;;;;;;;;;;;;17.60;72.65;96815.81;5076048;28;20275;-73
2022/07/22 04:11:14;;;;;;;;;;;;;;;17.58;72.69;96817.13;5075595;28;19980;-73
2022/07/22 04:13:40;;;;;;;;;;;;;;;17.55;72.75;96813.13;5074999;28;19964;-73
2022/07/22 04:16:06;;;;;;;;;;;;;;;17.55;73.12;96817.63;5075865;28;19967;-73
2022/07/22 04:18:32;;;;;;;;;;;;;;;17.53;72.93;96812.56;5075919;28;19995;-73
2022/07/22 04:20:58;;;;;;;;;;;;;;;17.53;73.28;96811.78;5075643;28;19967;-76
2022/07/22 04:23:24;;;;;;;;;;;;;;;17.51;72.94;96800.63;5075943;28;20420;-73
2022/07/22 04:25:50;;;;;;;;;;;;;;;17.49;72.88;96800.06;5076162;28;19973;-73
2022/07/22 04:28:16;;;;;;;;;;;;;;;17.50;73.83;96805.13;5075721;28;20414;-73
2022/07/22 04:30:42;;;;;;;;;;;;;;;17.48;73.58;96807.25;5075970;28;19957;-75
2022/07/22 04:33:08;;;;;;;;;;;;;;;17.50;73.53;96813.09;5075705;28;19960;-73
2022/07/22 04:35:33;;;;;;;;;;;;;;;17.54;74.04;96808.09;5075527;28;20358;-74
2022/07/22 04:38:00;;;;;;;;;;;;;;;17.56;73.63;96805.97;5075489;28;19962;-73
2022/07/22 04:40:26;;;;;;;;;;;;;;;17.60;73.25;96797.25;5075077;28;19958;-73
2022/07/22 04:42:51;;;;;;;;;;;;;;;17.63;72.81;96804.69;5075503;28;20001;-73
2022/07/22 04:45:17;;;;;;;;;;;;;;;17.65;73.02;96813.19;5075318;28;20421;-73
2022/07/22 04:47:43;;;;;;;;;;;;;;;17.70;73.06;96812.47;5074913;28;19993;-73
2022/07/22 04:50:09;;;;;;;;;;;;;;;17.76;72.45;96798.16;5075246;28;19997;-73
2022/07/22 04:52:35;;;;;;;;;;;;;;;17.84;73.05;96810.19;5075076;28;19999;-73
2022/07/22 04:55:01;;;;;;;;;;;;;;;17.93;72.98;96803.38;5075148;28;19962;-73
2022/07/22 04:57:27;;;;;;;;;;;;;;;18.03;72.34;96803.41;5075215;28;19966;-73
2022/07/22 04:59:53;;;;;;;;;;;;;;;18.10;71.84;96803.19;5074550;28;19965;-73
2022/07/22 05:02:19;;;;;;;;;;;;;;;18.19;71.47;96798.19;5074879;28;20049;-73
2022/07/22 05:04:45;;;;;;;;;;;;;;;18.30;71.06;96794.53;5075057;28;20503;-73
2022/07/22 05:07:11;;;;;;;;;;;;;;;18.43;70.62;96790.59;5075027;28;19987;-73
2022/07/22 05:09:37;;;;;;;;;;;;;;;18.58;70.95;96800.47;5074941;28;20418;-73
2022/07/22 05:12:03;;;;;;;;;;;;;;;18.74;70.15;96790.72;5074551;28;19992;-73
2022/07/22 05:14:29;;;;;;;;;;;;;;;18.94;69.79;96788.13;5057124;28;19970;-73
2022/07/22 05:16:55;;;;;;;;;;;;;;;19.12;69.50;96780.72;5074598;28;20399;-74
2022/07/22 05:19:21;;;;;;;;;;;;;;;19.27;68.96;96786.03;5074945;28;20408;-73
2022/07/22 05:21:47;;;;;;;;;;;;;;;19.51;68.81;96781.00;5056711;28;20072;-73
2022/07/22 05:24:13;;;;;;;;;;;;;;;19.75;68.17;96773.28;5074975;28;20070;-73
2022/07/22 05:26:39;;;;;;;;;;;;;;;19.93;67.98;96777.25;5074416;28;20408;-74
2022/07/22 05:29:05;;;;;;;;;;;;;;;20.17;67.42;96763.34;5074976;28;20483;-73
2022/07/22 05:31:31;;;;;;;;;;;;;;;20.43;66.50;96759.53;5074280;28;20385;-73
2022/07/22 05:33:57;;;;;;;;;;;;;;;20.66;66.07;96762.63;5074153;28;20038;-74
2022/07/22 05:36:23;;;;;;;;;;;;;;;20.90;65.67;96754.75;5073506;28;19962;-74
2022/07/22 05:38:49;;;;;;;;;;;;;;;21.12;65.09;96762.34;5074611;28;19972;-73
2022/07/22 05:41:15;;;;;;;;;;;;;;;21.31;64.42;96751.00;5074200;28;20003;-72
2022/07/22 05:43:41;;;;;;;;;;;;;;;21.49;63.93;96750.34;5056357;28;19956;-73
2022/07/22 05:46:09;;;;;;;;;;;;;;;21.69;63.01;96746.69;5074107;28;19976;-74
2022/07/22 05:48:35;;;;;;;;;;;;;;;21.88;62.91;96741.41;5073882;28;19966;-74
2022/07/22 05:51:02;;;;;;;;;;;;;;;22.03;62.32;96740.47;5056769;28;19956;-73
2022/07/22 05:53:28;;;;;;;;;;;;;;;22.14;62.03;96736.59;5056317;28;19977;-73
2022/07/22 05:55:53;;;;;;;;;;;;;;;22.34;61.84;96735.59;5073755;28;20409;-73
2022/07/22 05:58:19;;;;;;;;;;;;;;;22.43;60.96;96731.22;5074060;28;19962;-75
2022/07/22 06:00:45;;;;;;;;;;;;;;;22.46;60.54;96727.94;5074069;28;19991;-73
2022/07/22 06:03:11;;;;;;;;;;;;;;;22.54;60.44;96725.72;5073758;28;20489;-74
2022/07/22 06:05:37;;;;;;;;;;;;;;;22.61;60.24;96724.28;5073909;28;20328;-73
2022/07/22 06:08:03;;;;;;;;;;;;;;;22.75;60.24;96731.59;5073688;28;19967;-73
2022/07/22 06:10:29;;;;;;;;;;;;;;;22.88;60.05;96728.97;5073361;28;19960;-73
2022/07/22 06:12:55;;;;;;;;;;;;;;;23.05;59.40;96727.69;5073968;28;19993;-73
2022/07/22 06:15:21;;;;;;;;;;;;;;;23.26;59.52;96726.28;5072599;28;20384;-74
2022/07/22 06:17:47;;;;;;;;;;;;;;;23.38;58.35;96715.13;5073558;28;19961;-74
2022/07/22 06:20:13;;;;;;;;;;;;;;;23.53;58.77;96716.72;5073263;28;19958;-74
2022/07/22 06:22:39;;;;;;;;;;;;;;;23.65;57.54;96711.69;5073627;28;19957;-73
2022/07/22 06:25:05;;;;;;;;;;;;;;;23.84;57.60;96703.63;5073488;28;19971;-74
2022/07/22 06:27:31;;;;;;;;;;;;;;;23.97;56.62;96701.25;5073900;28;19963;-73
2022/07/22 06:29:57;;;;;;;;;;;;;;;24.14;56.46;96704.09;5073497;28;20014;-74
2022/07/22 06:32:23;;;;;;;;;;;;;;;24.33;56.25;96703.97;5073568;28;19999;-74
2022/07/22 06:34:49;;;;;;;;;;;;;;;24.47;55.66;96699.41;5073402;28;20351;-74
2022/07/22 06:37:15;;;;;;;;;;;;;;;24.52;55.38;96693.16;5073070;28;19978;-73
2022/07/22 06:39:41;;;;;;;;;;;;;;;24.55;55.14;96697.94;5073558;28;20363;-74
2022/07/22 06:42:07;;;;;;;;;;;;;;;24.61;55.28;96686.00;5059931;28;19960;-73
2022/07/22 06:44:33;;;;;;;;;;;;;;;24.70;55.59;96692.22;5073373;28;20420;-74
2022/07/22 06:46:59;;;;;;;;;;;;;;;24.79;54.57;96684.22;5073455;28;20041;-74
2022/07/22 06:49:25;;;;;;;;;;;;;;;24.86;55.01;96690.00;5073457;28;19953;-74
2022/07/22 06:51:50;;;;;;;;;;;;;;;24.84;54.06;96680.63;5073296;28;19958;-74
2022/07/22 06:54:16;;;;;;;;;;;;;;;24.88;54.57;96689.66;5055931;28;20014;-73
2022/07/22 06:56:42;;;;;;;;;;;;;;;24.95;54.54;96692.72;5073300;28;20048;-73
2022/07/22 06:59:08;;;;;;;;;;;;;;;25.14;54.21;96695.22;5073413;28;19959;-74
2022/07/22 07:01:34;;;;;;;;;;;;;;;25.28;53.51;96679.88;5073487;28;20412;-74
2022/07/22 07:04:00;;;;;;;;;;;;;;;25.41;53.53;96682.75;5073184;28;19960;-74
2022/07/22 07:06:26;;;;;;;;;;;;;;;25.52;52.60;96674.16;5072445;28;19970;-74
2022/07/22 07:08:52;;;;;;;;;;;;;;;25.61;53.23;96676.88;5073303;28;19959;-73
2022/07/22 07:11:18;;;;;;;;;;;;;;;25.73;52.00;96668.25;5073017;28;20330;-73
2022/07/22 07:13:44;;;;;;;;;;;;;;;25.79;52.76;96668.91;5073177;28;19965;-73
2022/07/22 07:16:10;;;;;;;;;;;;;;;25.75;52.71;96660.66;5073204;28;19965;-74
2022/07/22 07:18:36;;;;;;;;;;;;;;;25.64;52.69;96668.22;5073153;28;19979;-74
2022/07/22 07:21:03;;;;;;;;;;;;;;;25.51;51.77;96651.09;5073201;28;19970;-73
2022/07/22 07:23:29;;;;;;;;;;;;;;;25.45;52.03;96654.19;5073161;28;19963;-74
2022/07/22 07:25:55;;;;;;;;;;;;;;;25.36;53.08;96669.47;5073329;28;20067;-73
2022/07/22 07:28:21;;;;;;;;;;;;;;;25.47;52.77;96662.75;5073229;28;19961;-71
2022/07/22 07:30:47;;;;;;;;;;;;;;;25.40;52.42;96667.78;5072880;28;19961;-71
2022/07/22 07:33:13;;;;;;;;;;;;;;;25.46;53.06;96669.22;5073310;28;19963;-73
2022/07/22 07:35:39;;;;;;;;;;;;;;;25.56;52.00;96644.78;5073131;28;20332;-73
2022/07/22 07:38:05;;;;;;;;;;;;;;;25.54;52.46;96659.63;5072860;28;19958;-73
2022/07/22 07:40:31;;;;;;;;;;;;;;;25.52;52.93;96671.47;5055035;28;19957;-71
2022/07/22 07:42:57;;;;;;;;;;;;;;;25.67;53.45;96664.09;5073061;28;19968;-72
2022/07/22 07:45:23;;;;;;;;;;;;;;;25.85;53.19;96673.81;5072872;28;19968;-71
2022/07/22 07:47:49;;;;;;;;;;;;;;;26.02;51.85;96650.81;5072775;28;19971;-73
2022/07/22 07:50:15;;;;;;;;;;;;;;;26.25;52.19;96659.56;5075771;28;19998;-73
2022/07/22 07:52:42;;;;;;;;;;;;;;;26.44;50.87;96643.91;5076446;28;19958;-73
2022/07/22 07:55:09;;;;;;;;;;;;;;;26.56;51.29;96650.56;5076624;28;19955;-74
2022/07/22 07:57:35;;;;;;;;;;;;;;;26.56;49.30;96637.88;5076350;28;19965;-74
2022/07/22 08:00:01;;;;;;;;;;;;;;;26.42;49.75;96646.13;5076224;28;19962;-74
2022/07/22 08:02:27;;;;;;;;;;;;;;;26.31;49.79;96652.91;5076228;28;19952;-73
2022/07/22 08:04:53;;;;;;;;;;;;;;;26.37;50.69;96661.63;5076244;28;20490;-73
2022/07/22 08:07:19;;;;;;;;;;;;;;;26.32;49.96;96649.13;5076041;28;20408;-74
2022/07/22 08:09:45;;;;;;;;;;;;;;;26.38;50.65;96664.00;5075976;28;19960;-73
2022/07/22 08:12:11;;;;;;;;;;;;;;;26.47;49.66;96648.66;5075997;28;19980;-74
2022/07/22 08:14:37;;;;;;;;;;;;;;;26.59;50.38;96649.97;5075811;28;19952;-74
2022/07/22 08:17:03;;;;;;;;;;;;;;;26.78;49.33;96636.19;5075926;28;19997;-73
2022/07/22 08:19:29;;;;;;;;;;;;;;;27.01;48.84;96639.50;5075982;28;20320;-74
2022/07/22 08:21:55;;;;;;;;;;;;;;;27.16;50.46;96643.56;5058044;28;19988;-74
2022/07/22 08:24:21;;;;;;;;;;;;;;;27.27;50.35;96651.00;5076101;28;20386;-73
2022/07/22 08:26:47;;;;;;;;;;;;;;;27.40;49.72;96646.53;5075656;28;20072;-74
2022/07/22 08:29:12;;;;;;;;;;;;;;;27.37;47.79;96627.53;5075574;28;19965;-73
2022/07/22 08:31:38;;;;;;;;;;;;;;;27.39;48.74;96636.09;5058330;28;20501;-75
2022/07/22 08:34:04;;;;;;;;;;;;;;;27.47;48.16;96635.28;5075468;28;19961;-73
2022/07/22 08:36:31;;;;;;;;;;;;;;;27.64;48.51;96631.72;5075447;28;19961;-74
2022/07/22 08:38:57;;;;;;;;;;;;;;;27.64;46.75;96624.41;5057608;28;20340;-73
2022/07/22 08:41:23;;;;;;;;;;;;;;;27.59;47.23;96632.66;5075428;28;19960;-73
2022/07/22 08:43:50;;;;;;;;;;;;;;;27.63;48.19;96648.97;5075955;28;19967;-73
2022/07/22 08:46:16;;;;;;;;;;;;;;;27.71;46.90;96634.69;5075577;28;19976;-73
2022/07/22 08:48:42;;;;;;;;;;;;;;;27.76;46.98;96641.78;5075193;28;19969;-73
2022/07/22 08:51:08;;;;;;;;;;;;;;;27.83;46.78;96647.47;5075243;28;19962;-74
2022/07/22 08:53:34;;;;;;;;;;;;;;;27.90;46.62;96642.38;5075252;28;19963;-73
2022/07/22 08:56:00;;;;;;;;;;;;;;;27.85;46.23;96643.34;5075072;28;19992;-73
2022/07/22 08:58:26;;;;;;;;;;;;;;;27.82;46.26;96657.44;5075480;28;19954;-73
2022/07/22 09:01:09;;;;;;;;;;;;;;;27.65;43.54;96644.84;5074551;28;19984;-73
2022/07/22 09:03:43;;;;;;;;;;;;;;;27.67;46.60;96660.69;5075432;28;19958;-73
2022/07/22 09:06:09;;;;;;;;;;;;;;;27.74;46.63;96659.09;5074819;28;19972;-73
2022/07/22 09:08:49;;;;;;;;;;;;;;;27.79;46.66;96654.63;5074975;28;19958;-73
2022/07/22 09:11:16;;;;;;;;;;;;;;;27.91;46.00;96649.38;5059696;28;19986;-72
2022/07/22 09:13:42;;;;;;;;;;;;;;;27.93;44.45;96633.66;5074722;28;19964;-73
2022/07/22 09:16:08;;;;;;;;;;;;;;;27.93;45.56;96644.44;5074937;28;20399;-73
2022/07/22 09:18:50;;;;;;;;;;;;;;;27.91;44.82;96641.28;5074786;28;20043;-73
2022/07/22 09:21:16;;;;;;;;;;;;;;;27.87;45.79;96651.13;5074279;28;19962;-74
2022/07/22 09:23:42;;;;;;;;;;;;;;;27.90;44.93;96645.06;5074538;28;19958;-73
2022/07/22 09:26:29;;;;;;;;;;;;;;;27.97;45.90;96648.06;5074399;28;20421;-74
2022/07/22 09:28:56;;;;;;;;;;;;;;;27.81;43.98;96637.00;5074660;28;19952;-73
2022/07/22 09:31:30;;;;;;;;;;;;;;;27.71;45.40;96648.94;5074675;28;20415;-73
2022/07/22 09:33:59;;;;;;;;;;;;;;;27.68;46.05;96655.00;5074840;28;19957;-73
2022/07/22 09:36:25;;;;;;;;;;;;;;;27.79;46.75;96650.03;5074735;28;20416;-73
2022/07/22 09:38:51;;;;;;;;;;;;;;;27.98;45.99;96632.69;5074275;28;20019;-73
2022/07/22 09:41:17;;;;;;;;;;;;;;;28.18;46.45;96637.31;5073292;28;19963;-73
2022/07/22 09:43:43;;;;;;;;;;;;;;;28.27;45.58;96629.94;5074506;28;19971;-74
2022/07/22 09:46:10;;;;;;;;;;;;;;;28.37;43.71;96612.59;5073991;28;19965;-73
2022/07/22 09:48:39;;;;;;;;;;;;;;;28.32;43.76;96616.25;5074403;28;19981;-73
2022/07/22 09:51:05;;;;;;;;;;;;;;;28.25;43.91;96617.91;5074100;28;19958;-73
2022/07/22 09:53:32;;;;;;;;;;;;;;;28.20;43.96;96623.50;5074442;28;19969;-74
2022/07/22 09:55:59;;;;;;;;;;;;;;;28.16;43.00;96614.47;5073596;28;19954;-73
2022/07/22 09:58:26;;;;;;;;;;;;;;;28.16;44.09;96619.88;5074052;28;20410;-75
2022/07/22 10:00:52;;;;;;;;;;;;;;;28.26;45.02;96619.47;5073874;28;19969;-74
2022/07/22 10:03:23;;;;;;;;;;;;;;;28.27;41.99;96599.50;5074041;28;19959;-73
2022/07/22 10:05:49;;;;;;;;;;;;;;;28.32;42.57;96599.28;5056009;28;19982;-73
2022/07/22 10:08:15;;;;;;;;;;;;;;;28.33;42.85;96603.59;5073991;28;19966;-73
2022/07/22 10:10:41;;;;;;;;;;;;;;;28.42;43.03;96598.91;5073492;28;19958;-74
2022/07/22 10:13:08;;;;;;;;;;;;;;;28.55;43.67;96605.16;5073137;28;19964;-74
2022/07/22 10:15:34;;;;;;;;;;;;;;;28.66;40.22;96583.94;5073631;28;19961;-73
2022/07/22 10:18:03;;;;;;;;;;;;;;;28.69;41.02;96581.38;5073904;28;20413;-73
2022/07/22 10:20:30;;;;;;;;;;;;;;;28.78;43.06;96594.78;5072847;28;19963;-74
2022/07/22 10:22:56;;;;;;;;;;;;;;;28.89;42.34;96587.84;5056039;28;19961;-73
2022/07/22 10:25:24;;;;;;;;;;;;;;;29.01;40.82;96579.00;5073512;28;19981;-73
2022/07/22 10:27:52;;;;;;;;;;;;;;;29.02;40.02;96587.88;5064552;28;20324;-74
2022/07/22 10:30:22;;;;;;;;;;;;;;;29.01;39.93;96570.91;5073931;28;19951;-73
2022/07/22 10:33:07;;;;;;;;;;;;;;;29.02;41.55;96579.78;5074048;28;19966;-73
2022/07/22 10:35:34;;;;;;;;;;;;;;;29.21;41.12;96576.56;5073412;28;19956;-74
2022/07/22 10:38:01;;;;;;;;;;;;;;;29.34;40.90;96576.28;5073864;28;19961;-74
2022/07/22 10:40:29;;;;;;;;;;;;;;;29.36;39.81;96570.53;5073383;28;20328;-73
2022/07/22 10:42:58;;;;;;;;;;;;;;;29.28;40.08;96580.31;5073530;28;19960;-73
2022/07/22 10:45:24;;;;;;;;;;;;;;;29.43;40.69;96581.56;5073744;28;19972;-73
2022/07/22 10:47:54;;;;;;;;;;;;;;;29.61;40.62;96571.31;5073146;28;20452;-76
2022/07/22 10:50:35;;;;;;;;;;;;;;;29.70;38.58;96555.81;5073348;28;20407;-71
2022/07/22 10:53:01;;;;;;;;;;;;;;;29.82;38.75;96567.72;5058854;28;19958;-70
2022/07/22 10:55:27;;;;;;;;;;;;;;;29.90;38.44;96564.09;5055545;28;19955;-70
2022/07/22 10:57:53;;;;;;;;;;;;;;;29.96;39.27;96570.84;5073333;28;20326;-73
2022/07/22 11:00:19;;;;;;;;;;;;;;;30.03;38.90;96571.09;5073240;28;20011;-73
2022/07/22 11:02:45;;;;;;;;;;;;;;;30.22;39.00;96575.06;5073206;28;19963;-73
2022/07/22 11:05:11;;;;;;;;;;;;;;;30.40;38.60;96556.69;5055540;28;20334;-74
2022/07/22 11:07:44;;;;;;;;;;;;;;;30.59;38.04;96551.41;5073368;28;19957;-73
2022/07/22 11:10:11;;;;;;;;;;;;;;;30.74;37.00;96549.84;5055384;28;19956;-73
2022/07/22 11:12:37;;;;;;;;;;;;;;;30.86;36.84;96552.50;5073231;28;20435;-73
2022/07/22 11:15:06;;;;;;;;;;;;;;;30.86;37.96;96562.56;5055246;28;19970;-72
2022/07/22 11:17:34;;;;;;;;;;;;;;;30.84;37.03;96548.56;5073388;28;19962;-72
2022/07/22 11:20:05;;;;;;;;;;;;;;;30.96;37.22;96543.13;5055408;28;20406;-72
2022/07/22 11:22:30;;;;;;;;;;;;;;;31.12;35.86;96537.69;5072633;28;19955;-72
2022/07/22 11:24:57;;;;;;;;;;;;;;;31.19;36.58;96548.72;5076814;28;20446;-72
2022/07/22 11:27:25;;;;;;;;;;;;;;;31.27;35.18;96531.50;5076727;28;20336;-72
2022/07/22 11:29:52;;;;;;;;;;;;;;;31.13;35.23;96534.66;5076961;28;19962;-72
2022/07/22 11:32:22;;;;;;;;;;;;;;;30.88;35.69;96538.66;5076588;28;19966;-72
2022/07/22 11:34:48;;;;;;;;;;;;;;;30.75;34.39;96524.38;5076756;28;19970;-72
2022/07/22 11:37:18;;;;;;;;;;;;;;;30.81;37.59;96541.16;5076897;28;20439;-72
2022/07/22 11:39:45;;;;;;;;;;;;;;;31.02;36.35;96524.69;5076436;28;19953;-72
2022/07/22 11:42:11;;;;;;;;;;;;;;;31.11;35.90;96519.88;5076839;28;19980;-72
2022/07/22 11:44:38;;;;;;;;;;;;;;;31.32;36.50;96517.69;5076645;28;20020;-72
2022/07/22 11:47:05;;;;;;;;;;;;;;;31.58;36.03;96508.22;5076318;28;19980;-73
2022/07/22 11:49:35;;;;;;;;;;;;;;;31.77;34.28;96504.75;5076523;28;20335;-72
2022/07/22 11:52:02;;;;;;;;;;;;;;;31.94;35.79;96492.72;5076454;28;19957;-72
2022/07/22 11:54:28;;;;;;;;;;;;;;;32.05;34.48;96476.72;5076498;28;19954;-73
2022/07/22 11:56:54;;;;;;;;;;;;;;;31.80;32.54;96478.88;5058556;28;19974;-73
2022/07/22 11:59:20;;;;;;;;;;;;;;;31.58;32.67;96478.41;5076085;28;20317;-72
2022/07/22 12:01:47;;;;;;;;;;;;;;;31.58;32.43;96475.69;5076444;28;19962;-72
2022/07/22 12:04:14;;;;;;;;;;;;;;;31.74;35.37;96479.13;5076199;28;19957;-72
2022/07/22 12:06:41;;;;;;;;;;;;;;;31.88;33.50;96475.97;5076294;28;19977;-72
2022/07/22 12:09:15;;;;;;;;;;;;;;;32.04;34.77;96477.84;5076009;28;19959;-72
2022/07/22 12:11:45;;;;;;;;;;;;;;;32.16;33.31;96467.63;5075761;28;19983;-74
2022/07/22 12:14:16;;;;;;;;;;;;;;;32.11;31.75;96457.06;5076434;28;19963;-72
2022/07/22 12:16:44;;;;;;;;;;;;;;;32.18;35.06;96478.13;5075830;28;20328;-72
2022/07/22 12:19:11;;;;;;;;;;;;;;;32.20;33.50;96469.63;5075925;28;19956;-72
2022/07/22 12:21:50;;;;;;;;;;;;;;;32.14;33.53;96461.75;5075163;28;19959;-72
2022/07/22 12:24:24;;;;;;;;;;;;;;;31.94;33.39;96460.97;5075655;28;20415;-73
2022/07/22 12:26:50;;;;;;;;;;;;;;;31.90;33.79;96462.81;5075847;28;20348;-73
2022/07/22 12:29:17;;;;;;;;;;;;;;;32.08;34.82;96460.47;5075722;28;19990;-73
2022/07/22 12:31:47;;;;;;;;;;;;;;;32.35;34.50;96452.47;5075995;28;19959;-73
2022/07/22 12:34:13;;;;;;;;;;;;;;;32.67;34.08;96450.34;5075087;28;19963;-72
2022/07/22 12:36:43;;;;;;;;;;;;;;;32.91;33.93;96451.13;5074900;28;19994;-72
2022/07/22 12:39:16;;;;;;;;;;;;;;;33.06;32.67;96442.03;5075654;28;20330;-72
2022/07/22 12:41:49;;;;;;;;;;;;;;;33.07;32.55;96443.63;5075503;28;20333;-72
2022/07/22 12:44:19;;;;;;;;;;;;;;;32.86;32.71;96449.47;5075625;28;19959;-72